Ari, Indiana
Current Conditions -  °F | °C
As of 3:15 AM on Friday 21 Nov 2014 (Local Time) from KGWB Reporting Station
Clear Clear  
Wind Chill: 11°   Ceiling: Unl
Heat Index: 18°   Visibility: 10mi
Dew Point:   Wind: 5mph
Humidity: 68%   Direction: 240°WSW
Pressure: 30.32"   Gusts: NA
Location:  41.225°N, 85.325°W
Report Text: KGWB 210815Z AUTO 24004KT 10SM CLR M08/M13 A3032 RMK AO2
Loading
Personal Weather Stations






























Interactive Weather Map New forecast layout! Learn more

10-Day Weather Forecast

Advertisements
Track Severe Weather on mobile